Skip Navigation Links Skip Navigation Links

Current Weather

Corumba, Brazil

For information only: do not use for flight planning or navigation.
Latest weather
Observation time Friday, July 10, 2020 6:00 PM -03
Local time Friday, July 10, 2020 10:17 PM -03
Flight conditions Marginal Visual Meteorological Conditions
Winds
Wind direction Northeast (40°)
Wind speed 8 mph
Visibility 3.1 mi.
Present weather smoke
Sky condition
Ceiling unlimited
Temperature 84°F
Dewpoint 66°F
Altimeter 29.83 in.Hg
Derived measurements
Relative humidity 55%
Heat index 87°F
Density altitude 2016 ft.
METAR SBCR 102100Z 04007KT 5000 FU NSC 29/19 Q1010

Settings

Location code

InnerDrive.Weather 4.0.6770.0 Release CLR 4.0.30319.42000
Copyright ©2018 Inner Drive Technology. All rights reserved. Portions Copyright ©1986-2018 David Braverman.

Find weather

Site navigation


Skip Navigation Links

Place info

Page info

PayPal - The safer, easier way to pay online!

Return home.

Copyright ©2020 Inner Drive Technology. Purveyors of fine, hand-crafted computer software. Page printed 2020-07-11T01:17:46 UTC.